createdAt,value
2023-01-10T00:00:37.727Z,100923.38
2023-01-10T00:03:07.747Z,100933.41
2023-01-10T00:05:35.942Z,100942.00
2023-01-10T00:08:03.667Z,100944.72
2023-01-10T00:10:31.733Z,100930.88
2023-01-10T00:13:17.102Z,100944.72
2023-01-10T00:15:44.443Z,100943.94
2023-01-10T00:18:11.751Z,100926.19
2023-01-10T00:20:38.564Z,100946.38
2023-01-10T00:23:05.670Z,100944.63
2023-01-10T00:25:34.336Z,100936.78
2023-01-10T00:28:20.231Z,100929.75
2023-01-10T00:30:55.187Z,100936.78
2023-01-10T00:33:22.687Z,100938.16
2023-01-10T00:35:49.655Z,100954.12
2023-01-10T00:38:16.934Z,100953.31
2023-01-10T00:40:43.701Z,100944.53
2023-01-10T00:43:29.316Z,100927.69
2023-01-10T00:45:57.512Z,100939.47
2023-01-10T00:48:24.745Z,100937.53
2023-01-10T00:50:51.519Z,100934.91
2023-01-10T00:53:18.163Z,100928.06
2023-01-10T00:55:45.308Z,100943.66
2023-01-10T00:58:14.206Z,100924.25
2023-01-10T01:00:41.974Z,100943.62
2023-01-10T01:03:09.051Z,100952.28
2023-01-10T01:05:43.350Z,100938.53
2023-01-10T01:08:11.822Z,100941.00
2023-01-10T01:10:38.519Z,100950.50
2023-01-10T01:13:10.258Z,100944.53
2023-01-10T01:15:37.292Z,100925.81
2023-01-10T01:18:05.187Z,100942.75
2023-01-10T01:20:32.720Z,100934.63
2023-01-10T01:23:00.790Z,100945.53
2023-01-10T01:25:27.465Z,100951.59
2023-01-10T01:27:54.299Z,100957.78
2023-01-10T01:30:21.344Z,100935.63
2023-01-10T01:32:48.085Z,100949.94
2023-01-10T01:35:16.495Z,100945.63
2023-01-10T01:37:44.288Z,100936.47
2023-01-10T01:40:14.848Z,100943.84
2023-01-10T01:42:43.916Z,100942.09
2023-01-10T01:45:22.779Z,100942.19
2023-01-10T01:47:58.351Z,100928.63
2023-01-10T01:50:37.684Z,100929.56
2023-01-10T01:53:11.889Z,100938.53
2023-01-10T01:55:39.915Z,100949.09
2023-01-10T01:58:10.967Z,100950.97
2023-01-10T02:00:37.619Z,100941.50
2023-01-10T02:03:06.007Z,100945.91
2023-01-10T02:05:35.450Z,100930.03
2023-01-10T02:08:02.592Z,100949.44
2023-01-10T02:10:41.201Z,100956.56
2023-01-10T02:13:11.374Z,100960.00
2023-01-10T02:15:38.176Z,100937.00
2023-01-10T02:18:05.312Z,100959.25
2023-01-10T02:20:48.038Z,100951.59
2023-01-10T02:23:29.738Z,100955.13
2023-01-10T02:26:11.693Z,100954.38
2023-01-10T02:29:13.555Z,100956.25
2023-01-10T02:32:05.499Z,100935.59
2023-01-10T02:34:51.374Z,100941.50
2023-01-10T02:37:49.347Z,100939.81
2023-01-10T02:40:41.283Z,100952.88
2023-01-10T02:43:13.461Z,100936.03
2023-01-10T02:45:47.283Z,100954.75
2023-01-10T02:48:17.510Z,100937.91
2023-01-10T02:50:47.321Z,100959.13
2023-01-10T02:53:24.918Z,100968.66
2023-01-10T02:56:18.607Z,100977.31
2023-01-10T02:59:10.311Z,100976.41
2023-01-10T03:01:58.183Z,100968.16
2023-01-10T03:04:37.305Z,100968.00
2023-01-10T03:07:19.984Z,100971.63
2023-01-10T03:09:55.853Z,100957.31
2023-01-10T03:12:32.245Z,100980.47
2023-01-10T03:15:00.690Z,100975.31
2023-01-10T03:17:30.602Z,100979.06
2023-01-10T03:20:02.617Z,100985.13
2023-01-10T03:22:31.927Z,100993.97
2023-01-10T03:25:01.384Z,101000.16
2023-01-10T03:27:52.069Z,100982.63
2023-01-10T03:30:44.821Z,100999.63
2023-01-10T03:33:12.725Z,101003.34
2023-01-10T03:35:51.100Z,101000.81
2023-01-10T03:38:50.221Z,100989.41
2023-01-10T03:41:42.547Z,101011.78
2023-01-10T03:44:43.190Z,101011.13
2023-01-10T03:47:24.381Z,101007.00
2023-01-10T03:49:56.454Z,100997.06
2023-01-10T03:52:25.229Z,101011.47
2023-01-10T03:54:52.076Z,101014.25
2023-01-10T03:57:22.924Z,101010.78
2023-01-10T03:59:58.344Z,101011.81
2023-01-10T04:02:30.665Z,100996.87
2023-01-10T04:04:59.087Z,101020.16
2023-01-10T04:07:26.792Z,101016.84
2023-01-10T04:09:54.378Z,101017.84
2023-01-10T04:12:21.407Z,101022.41
2023-01-10T04:14:48.260Z,100997.03
2023-01-10T04:17:16.569Z,101008.31
2023-01-10T04:19:43.839Z,101034.00
2023-01-10T04:22:11.651Z,101032.34
2023-01-10T04:24:39.128Z,101042.00
2023-01-10T04:27:06.632Z,101038.56
2023-01-10T04:29:33.400Z,101046.47
2023-01-10T04:32:01.081Z,101043.03
2023-01-10T04:34:29.204Z,101040.41
2023-01-10T04:36:55.885Z,101039.56
2023-01-10T04:39:22.497Z,101034.66
2023-01-10T04:41:49.902Z,101046.47
2023-01-10T04:44:16.749Z,101051.78
2023-01-10T04:46:43.397Z,101053.56
2023-01-10T04:49:10.650Z,101057.06
2023-01-10T04:51:37.454Z,101060.00
2023-01-10T04:54:04.233Z,101073.22
2023-01-10T04:56:31.171Z,101040.84
2023-01-10T04:58:57.875Z,101070.31
2023-01-10T05:01:25.752Z,101069.47
2023-01-10T05:03:55.151Z,101093.12
2023-01-10T05:06:23.455Z,101082.06
2023-01-10T05:08:50.209Z,101084.91
2023-01-10T05:11:17.179Z,101076.41
2023-01-10T05:13:44.005Z,101078.25
2023-01-10T05:16:10.735Z,101081.84
2023-01-10T05:18:37.758Z,101080.31
2023-01-10T05:21:07.764Z,101080.47
2023-01-10T05:23:34.430Z,101080.47
2023-01-10T05:26:16.061Z,101078.00
2023-01-10T05:28:43.358Z,101088.53
2023-01-10T05:31:13.309Z,101090.47
2023-01-10T05:33:43.498Z,101094.13
2023-01-10T05:36:10.489Z,101107.47
2023-01-10T05:38:37.259Z,101107.94
2023-01-10T05:41:04.011Z,101099.38
2023-01-10T05:43:30.985Z,101114.16
2023-01-10T05:45:57.871Z,101114.38
2023-01-10T05:48:24.550Z,101114.59
2023-01-10T05:50:52.865Z,101115.69
2023-01-10T05:53:20.117Z,101108.13
2023-01-10T05:55:58.217Z,101115.31
2023-01-10T05:58:25.983Z,101108.09
2023-01-10T06:00:54.515Z,101124.34
2023-01-10T06:03:21.850Z,101135.97
2023-01-10T06:05:49.162Z,101115.19
2023-01-10T06:08:16.362Z,101136.78
2023-01-10T06:10:43.869Z,101123.62
2023-01-10T06:13:12.162Z,101133.44
2023-01-10T06:15:39.127Z,101135.41
2023-01-10T06:18:12.125Z,101146.25
2023-01-10T06:20:39.711Z,101162.56
2023-01-10T06:23:06.926Z,101166.31
2023-01-10T06:25:36.961Z,101166.47
2023-01-10T06:28:04.255Z,101167.59
2023-01-10T06:30:31.220Z,101170.41
2023-01-10T06:33:05.515Z,101150.38
2023-01-10T06:35:32.621Z,101165.34
2023-01-10T06:37:59.550Z,101154.66
2023-01-10T06:40:26.894Z,101176.37
2023-01-10T06:42:53.914Z,101179.34
2023-01-10T06:45:20.963Z,101180.59
2023-01-10T06:47:47.634Z,101167.28
2023-01-10T06:50:14.558Z,101168.31
2023-01-10T06:52:42.060Z,101186.94
2023-01-10T06:55:08.808Z,101195.63
2023-01-10T06:57:35.730Z,101194.06
2023-01-10T07:00:04.834Z,101192.38
2023-01-10T07:02:31.709Z,101209.81
2023-01-10T07:04:58.594Z,101210.75
2023-01-10T07:07:25.252Z,101203.13
2023-01-10T07:09:51.896Z,101197.13
2023-01-10T07:12:18.896Z,101216.31
2023-01-10T07:14:45.557Z,101190.66
2023-01-10T07:17:12.172Z,101214.59
2023-01-10T07:19:39.054Z,101213.13
2023-01-10T07:22:05.873Z,101212.34
2023-01-10T07:24:32.486Z,101228.59
2023-01-10T07:26:59.362Z,101215.91
2023-01-10T07:29:25.984Z,101210.72
2023-01-10T07:31:52.639Z,101230.19
2023-01-10T07:34:19.603Z,101224.09
2023-01-10T07:36:46.261Z,101222.81
2023-01-10T07:39:12.949Z,101250.91
2023-01-10T07:41:40.083Z,101237.91
2023-01-10T07:44:06.869Z,101239.56
2023-01-10T07:46:33.584Z,101243.84
2023-01-10T07:49:00.643Z,101249.84
2023-01-10T07:51:27.322Z,101253.34
2023-01-10T07:53:53.930Z,101247.25
2023-01-10T07:56:21.068Z,101246.50
2023-01-10T07:58:47.714Z,101252.62
2023-01-10T08:01:14.573Z,101265.72
2023-01-10T08:03:41.577Z,101232.31
2023-01-10T08:06:13.149Z,101254.41
2023-01-10T08:08:40.466Z,101259.53
2023-01-10T08:11:07.883Z,101234.56
2023-01-10T08:13:34.654Z,101254.28
2023-01-10T08:16:06.056Z,101262.03
2023-01-10T08:18:33.574Z,101270.75
2023-01-10T08:21:00.949Z,101267.34
2023-01-10T08:23:28.053Z,101259.44
2023-01-10T08:25:58.969Z,101249.03
2023-01-10T08:28:25.626Z,101273.53
2023-01-10T08:30:55.774Z,101269.88
2023-01-10T08:33:23.950Z,101267.16
2023-01-10T08:35:51.593Z,101269.81
2023-01-10T08:38:18.510Z,101263.47
2023-01-10T08:40:45.558Z,101250.84
2023-01-10T08:43:13.054Z,101266.06
2023-01-10T08:45:39.863Z,101264.06
2023-01-10T08:48:09.322Z,101258.09
2023-01-10T08:50:36.187Z,101265.03
2023-01-10T08:53:03.082Z,101255.62
2023-01-10T08:55:31.223Z,101261.53
2023-01-10T08:58:01.676Z,101244.34
2023-01-10T09:00:28.983Z,101251.19
2023-01-10T09:02:56.051Z,101261.38
2023-01-10T09:05:27.495Z,101254.97
2023-01-10T09:08:03.736Z,101254.03
2023-01-10T09:10:30.887Z,101252.19
2023-01-10T09:13:01.367Z,101260.06
2023-01-10T09:15:36.282Z,101248.69
2023-01-10T09:18:05.893Z,101227.53
2023-01-10T09:20:34.928Z,101245.53
2023-01-10T09:23:17.537Z,101244.88
2023-01-10T09:25:45.349Z,101227.16
2023-01-10T09:28:12.061Z,101247.53
2023-01-10T09:30:38.823Z,101245.78
2023-01-10T09:33:06.863Z,101236.50
2023-01-10T09:35:36.639Z,101261.13
2023-01-10T09:38:04.923Z,101262.84
2023-01-10T09:40:51.015Z,101248.38
2023-01-10T09:43:44.454Z,101259.16
2023-01-10T09:46:28.291Z,101263.25
2023-01-10T09:49:08.961Z,101253.59
2023-01-10T09:51:45.126Z,101247.81
2023-01-10T09:54:20.489Z,101248.44
2023-01-10T09:56:47.810Z,101265.25
2023-01-10T09:59:24.804Z,101273.72
2023-01-10T10:02:17.491Z,101254.47
2023-01-10T10:04:57.768Z,101262.66
2023-01-10T10:07:24.677Z,101247.06
2023-01-10T10:09:51.595Z,101263.72
2023-01-10T10:12:47.346Z,101266.12
2023-01-10T10:15:46.230Z,101259.78
2023-01-10T10:18:29.701Z,101259.44
2023-01-10T10:21:18.076Z,101255.72
2023-01-10T10:24:09.574Z,101259.03
2023-01-10T13:41:35.667Z,101306.91
2023-01-10T13:44:15.159Z,101317.22
2023-01-10T13:46:47.630Z,101323.12
2023-01-10T13:49:14.605Z,101318.59
2023-01-10T13:52:39.846Z,101316.47
2023-01-10T13:55:22.178Z,101323.81
2023-01-10T13:57:54.989Z,101323.88
2023-01-10T14:01:05.720Z,101326.56
2023-01-10T14:03:52.900Z,101313.25
2023-01-10T14:06:28.784Z,101318.37
2023-01-10T14:09:14.638Z,101340.53
2023-01-10T14:11:54.480Z,101335.63
2023-01-10T14:14:29.063Z,101349.06
2023-01-10T14:17:12.693Z,101351.72
2023-01-10T14:19:41.141Z,101346.44
2023-01-10T14:22:24.767Z,101326.84
2023-01-10T14:24:53.878Z,101346.38
2023-01-10T14:27:22.742Z,101351.59
2023-01-10T14:30:01.993Z,101343.69
2023-01-10T14:32:38.325Z,101331.50
2023-01-10T14:35:08.329Z,101328.47
2023-01-10T14:37:44.231Z,101340.12
2023-01-10T14:40:43.243Z,101333.97
2023-01-10T14:43:15.925Z,101336.44
2023-01-10T14:46:01.224Z,101335.53
2023-01-10T14:48:32.584Z,101335.53
2023-01-10T14:51:21.746Z,101344.12
2023-01-10T14:53:57.499Z,101352.75
2023-01-10T14:56:28.206Z,101337.50
2023-01-10T14:58:55.274Z,101344.00
2023-01-10T15:01:30.492Z,101334.41
2023-01-10T15:03:57.651Z,101349.84
2023-01-10T15:06:26.064Z,101331.09
2023-01-10T15:08:58.453Z,101353.16
2023-01-10T15:11:27.571Z,101355.69
2023-01-10T15:14:00.130Z,101348.66
2023-01-10T15:16:28.725Z,101342.78
2023-01-10T15:18:56.706Z,101357.19
2023-01-10T15:21:24.445Z,101359.66
2023-01-10T15:23:51.758Z,101353.59
2023-01-10T15:26:29.128Z,101360.34
2023-01-10T15:29:23.477Z,101365.56
2023-01-10T15:31:52.201Z,101359.59
2023-01-10T15:34:22.653Z,101368.00
2023-01-10T15:36:53.727Z,101364.50
2023-01-10T15:39:24.015Z,101362.69
2023-01-10T15:41:57.983Z,101366.16
2023-01-10T15:44:45.074Z,101362.63
2023-01-10T15:47:41.370Z,101342.94
2023-01-10T15:50:29.672Z,101361.63
2023-01-10T15:53:02.315Z,101357.28
2023-01-10T15:55:36.042Z,101348.50
2023-01-10T15:58:03.170Z,101355.34
2023-01-10T16:00:30.431Z,101357.12
2023-01-10T16:02:57.904Z,101357.12
2023-01-10T16:05:24.734Z,101364.00
2023-01-10T16:07:51.711Z,101345.34
2023-01-10T16:10:24.497Z,101356.97
2023-01-10T16:13:10.000Z,101357.81
2023-01-10T16:15:40.829Z,101359.53
2023-01-10T16:18:07.811Z,101372.56
2023-01-10T16:20:41.401Z,101364.66
2023-01-10T16:23:16.148Z,101362.87
2023-01-10T16:25:47.088Z,101354.16
2023-01-10T16:28:16.595Z,101367.19
2023-01-10T16:30:46.807Z,101369.75
2023-01-10T16:33:19.341Z,101365.34
2023-01-10T16:35:48.049Z,101367.00
2023-01-10T16:38:15.833Z,101369.66
2023-01-10T16:40:46.807Z,101346.69
2023-01-10T16:43:21.842Z,101368.75
2023-01-10T16:45:52.067Z,101369.59
2023-01-10T16:48:20.856Z,101368.69
2023-01-10T16:50:48.805Z,101352.59
2023-01-10T16:53:18.377Z,101359.09
2023-01-10T16:55:53.039Z,101364.31
2023-01-10T16:58:21.028Z,101361.69
2023-01-10T17:00:50.286Z,101354.78
2023-01-10T17:03:20.395Z,101348.22
2023-01-10T17:05:47.194Z,101361.75
2023-01-10T17:08:20.534Z,101353.94
2023-01-10T17:10:51.010Z,101352.16
2023-01-10T17:13:27.245Z,101362.75
2023-01-10T17:15:53.978Z,101350.59
2023-01-10T17:18:20.991Z,101342.31
2023-01-10T17:20:47.633Z,101362.87
2023-01-10T17:23:15.708Z,101347.53
2023-01-10T17:25:42.973Z,101357.53
2023-01-10T17:28:12.142Z,101368.84
2023-01-10T17:30:40.384Z,101374.06
2023-01-10T17:33:10.983Z,101371.44
2023-01-10T17:35:41.609Z,101374.75
2023-01-10T17:38:13.984Z,101372.22
2023-01-10T17:40:44.463Z,101386.09
2023-01-10T17:43:12.414Z,101390.41
2023-01-10T17:45:43.218Z,101386.22
2023-01-10T17:48:13.057Z,101379.28
2023-01-10T17:50:40.321Z,101399.28
2023-01-10T17:53:06.939Z,101389.81
2023-01-10T17:55:33.662Z,101372.06
2023-01-10T17:58:02.796Z,101379.47
2023-01-10T18:00:30.412Z,101386.59
2023-01-10T18:02:57.494Z,101411.84
2023-01-10T18:05:24.152Z,101399.00
2023-01-10T18:07:50.792Z,101379.25
2023-01-10T18:10:18.205Z,101395.75
2023-01-10T18:12:45.608Z,101391.62
2023-01-10T18:15:12.251Z,101393.50
2023-01-10T18:17:39.331Z,101402.50
2023-01-10T18:20:06.913Z,101386.28
2023-01-10T18:22:52.022Z,101402.09
2023-01-10T18:25:19.395Z,101381.84
2023-01-10T18:27:50.297Z,101399.16
2023-01-10T18:30:22.200Z,101388.22
2023-01-10T18:32:49.885Z,101398.78
2023-01-10T18:35:16.691Z,101400.94
2023-01-10T18:37:43.536Z,101410.09
2023-01-10T18:40:11.596Z,101429.69
2023-01-10T18:42:38.496Z,101419.72
2023-01-10T18:45:06.467Z,101428.69
2023-01-10T18:47:33.883Z,101427.16
2023-01-10T18:50:00.600Z,101436.13
2023-01-10T18:52:27.456Z,101427.66
2023-01-10T18:54:54.469Z,101425.19
2023-01-10T18:57:21.118Z,101431.16
2023-01-10T18:59:47.788Z,101411.59
2023-01-10T19:02:15.645Z,101422.72
2023-01-10T19:04:42.634Z,101414.53
2023-01-10T19:07:09.435Z,101441.25
2023-01-10T19:09:36.455Z,101426.09
2023-01-10T19:12:03.307Z,101431.25
2023-01-10T19:14:29.992Z,101439.28
2023-01-10T19:16:56.940Z,101439.50
2023-01-10T19:19:23.746Z,101442.22
2023-01-10T19:21:50.444Z,101443.28
2023-01-10T19:24:27.541Z,101441.69
2023-01-10T19:26:55.333Z,101448.88
2023-01-10T19:29:23.228Z,101450.84
2023-01-10T19:31:50.229Z,101440.00
2023-01-10T19:34:17.554Z,101456.28
2023-01-10T19:36:45.547Z,101449.50
2023-01-10T19:39:13.149Z,101458.19
2023-01-10T19:41:41.025Z,101452.28
2023-01-10T19:44:12.397Z,101459.28
2023-01-10T19:46:40.604Z,101455.16
2023-01-10T19:49:13.268Z,101460.31
2023-01-10T19:51:41.160Z,101472.53
2023-01-10T19:54:08.727Z,101469.16
2023-01-10T19:56:35.850Z,101475.41
2023-01-10T19:59:03.448Z,101475.56
2023-01-10T20:01:31.597Z,101470.53
2023-01-10T20:04:03.395Z,101447.63
2023-01-10T20:06:32.616Z,101480.38
2023-01-10T20:08:59.574Z,101461.78
2023-01-10T20:11:36.729Z,101472.06
2023-01-10T20:14:05.758Z,101486.00
2023-01-10T20:16:32.502Z,101467.31
2023-01-10T20:18:59.253Z,101463.91
2023-01-10T20:21:26.251Z,101492.25
2023-01-10T20:23:52.948Z,101493.19
2023-01-10T20:26:22.625Z,101496.75
2023-01-10T20:28:50.638Z,101505.59
2023-01-10T20:31:21.253Z,101500.66
2023-01-10T20:33:48.692Z,101494.66
2023-01-10T20:36:18.205Z,101500.84
2023-01-10T20:38:45.089Z,101500.03
2023-01-10T20:41:20.754Z,101481.37
2023-01-10T20:43:47.931Z,101495.78
2023-01-10T20:46:28.685Z,101499.19
2023-01-10T20:48:56.971Z,101509.66
2023-01-10T20:51:27.264Z,101505.34
2023-01-10T20:53:54.122Z,101502.91
2023-01-10T20:56:23.367Z,101509.00
2023-01-10T20:58:51.186Z,101516.81
2023-01-10T21:01:28.628Z,101509.28
2023-01-10T21:04:00.327Z,101522.25
2023-01-10T21:06:27.212Z,101497.66
2023-01-10T21:08:54.017Z,101529.44
2023-01-10T21:11:21.124Z,101524.41
2023-01-10T21:13:48.274Z,101528.87
2023-01-10T21:16:18.251Z,101534.13
2023-01-10T21:18:45.756Z,101534.13
2023-01-10T21:21:15.316Z,101530.12
2023-01-10T21:23:42.577Z,101547.19
2023-01-10T21:26:12.447Z,101540.28
2023-01-10T21:28:42.458Z,101539.63
2023-01-10T21:31:10.707Z,101550.66
2023-01-10T21:33:37.508Z,101550.78
2023-01-10T21:36:05.079Z,101551.69
2023-01-10T21:38:33.138Z,101556.06
2023-01-10T21:41:14.074Z,101551.87
2023-01-10T21:43:45.303Z,101552.75
2023-01-10T21:46:12.409Z,101541.63
2023-01-10T21:48:39.276Z,101535.75
2023-01-10T21:51:06.331Z,101550.28
2023-01-10T21:53:33.030Z,101549.44
2023-01-10T21:56:00.021Z,101549.44
2023-01-10T21:58:27.524Z,101551.13
2023-01-10T22:00:56.877Z,101543.66
2023-01-10T22:03:24.089Z,101567.53
2023-01-10T22:05:51.015Z,101564.94
2023-01-10T22:08:17.701Z,101567.53
2023-01-10T22:10:44.656Z,101567.56
2023-01-10T22:13:11.386Z,101565.91
2023-01-10T22:15:38.048Z,101577.09
2023-01-10T22:18:05.077Z,101563.22
2023-01-10T22:20:31.814Z,101573.50
2023-01-10T22:22:58.568Z,101571.75
2023-01-10T22:25:25.830Z,101576.94
2023-01-10T22:27:53.430Z,101582.13
2023-01-10T22:30:20.108Z,101572.59
2023-01-10T22:32:47.054Z,101579.53
2023-01-10T22:35:14.731Z,101568.22
2023-01-10T22:37:41.512Z,101579.53
2023-01-10T22:40:09.397Z,101587.31
2023-01-10T22:42:36.051Z,101584.78
2023-01-10T22:45:02.775Z,101583.06
2023-01-10T22:47:29.735Z,101567.84
2023-01-10T22:49:56.629Z,101588.28
2023-01-10T22:52:23.464Z,101581.38
2023-01-10T22:54:50.427Z,101594.28
2023-01-10T22:57:17.032Z,101570.41
2023-01-10T22:59:43.679Z,101585.69
2023-01-10T23:02:10.672Z,101589.09
2023-01-10T23:04:37.445Z,101586.41
2023-01-10T23:07:04.081Z,101577.78
2023-01-10T23:09:30.997Z,101581.22
2023-01-10T23:11:57.682Z,101582.06
2023-01-10T23:14:24.314Z,101578.53
2023-01-10T23:16:51.283Z,101572.69
2023-01-10T23:19:17.991Z,101567.47
2023-01-10T23:21:44.611Z,101570.81
2023-01-10T23:24:13.874Z,101558.81
2023-01-10T23:26:40.636Z,101561.50
2023-01-10T23:29:07.439Z,101569.31
2023-01-10T23:31:34.488Z,101575.44
2023-01-10T23:34:01.206Z,101574.66
2023-01-10T23:36:27.799Z,101556.91
2023-01-10T23:38:55.186Z,101574.06
2023-01-10T23:41:22.322Z,101586.22
2023-01-10T23:43:49.726Z,101593.19
2023-01-10T23:46:16.798Z,101594.06
2023-01-10T23:48:46.077Z,101566.66
2023-01-10T23:51:13.713Z,101593.09
2023-01-10T23:53:41.022Z,101595.59
2023-01-10T23:56:14.111Z,101591.38
2023-01-10T23:58:41.565Z,101598.28
